Time;durP1;ratioP1;P1;durP2;ratioP2;P2;SDS_P1;SDS_P2;PMS_P1;PMS_P2;Temp;Humidity;BMP_temperature;BMP_pressure;BME280_temperature;BME280_humidity;BME280_pressure;Samples;Min_cycle;Max_cycle;Signal;HPM_P1;HPM_P2
2022/08/10 00:02:15;;;;;;;7.00;3.60;;;25.10;53.40;;;;;;7685969;22;80733;-67
2022/08/10 00:05:16;;;;;;;7.00;3.20;;;25.00;53.50;;;;;;7686498;22;79939;-67
2022/08/10 00:08:16;;;;;;;7.40;3.60;;;25.00;53.40;;;;;;7686219;22;80298;-67
2022/08/10 00:11:16;;;;;;;6.70;2.97;;;25.00;53.50;;;;;;7685817;22;81120;-66
2022/08/10 00:14:17;;;;;;;6.18;3.40;;;25.00;53.50;;;;;;7686539;22;80633;-67
2022/08/10 00:17:17;;;;;;;4.28;2.80;;;25.00;53.40;;;;;;7686139;22;80965;-67
2022/08/10 00:20:18;;;;;;;5.47;3.08;;;25.00;53.30;;;;;;7686962;22;80244;-68
2022/08/10 00:23:18;;;;;;;5.15;3.30;;;25.00;54.00;;;;;;7687085;22;80412;-67
2022/08/10 00:26:19;;;;;;;5.97;3.10;;;25.00;53.40;;;;;;7684953;22;81528;-67
2022/08/10 00:29:19;;;;;;;6.35;3.35;;;24.90;53.40;;;;;;7686442;22;80689;-67
2022/08/10 00:32:20;;;;;;;12.57;3.42;;;25.00;53.30;;;;;;7686433;22;80733;-68
2022/08/10 00:35:20;;;;;;;10.35;4.05;;;25.00;53.40;;;;;;7685954;22;80147;-67
2022/08/10 00:38:21;;;;;;;6.72;3.20;;;24.90;53.40;;;;;;7686133;22;80369;-67
2022/08/10 00:41:21;;;;;;;7.13;3.45;;;25.00;53.30;;;;;;7686108;22;80810;-68
2022/08/10 00:44:22;;;;;;;6.03;3.85;;;25.00;53.40;;;;;;7686305;22;80162;-68
2022/08/10 00:47:22;;;;;;;6.47;3.00;;;25.00;53.50;;;;;;7685842;22;80625;-67
2022/08/10 00:50:23;;;;;;;5.47;3.08;;;25.00;53.50;;;;;;7686612;22;80644;-67
2022/08/10 00:53:23;;;;;;;5.55;3.40;;;24.90;53.50;;;;;;7686001;22;79998;-68
2022/08/10 00:56:24;;;;;;;5.68;3.45;;;24.90;53.50;;;;;;7686696;22;80679;-67
2022/08/10 00:59:24;;;;;;;15.63;3.35;;;25.00;53.50;;;;;;7686811;22;80656;-67
2022/08/10 01:02:25;;;;;;;5.57;3.13;;;25.00;53.50;;;;;;7686191;22;80618;-67
2022/08/10 01:05:25;;;;;;;5.72;3.40;;;24.90;53.60;;;;;;7686310;22;80333;-67
2022/08/10 01:08:26;;;;;;;4.10;3.13;;;25.00;53.50;;;;;;7686395;22;81615;-67
2022/08/10 01:11:26;;;;;;;5.57;3.22;;;24.90;53.50;;;;;;7685338;22;80412;-67
2022/08/10 01:14:27;;;;;;;8.77;3.42;;;24.90;53.50;;;;;;7685823;22;81303;-67
2022/08/10 01:17:27;;;;;;;4.97;2.90;;;24.90;53.80;;;;;;7685737;22;80505;-67
2022/08/10 01:20:28;;;;;;;6.45;3.30;;;24.90;53.60;;;;;;7686427;22;80754;-67
2022/08/10 01:23:28;;;;;;;6.00;2.50;;;24.90;53.50;;;;;;7686201;22;81238;-67
2022/08/10 01:26:29;;;;;;;4.47;3.00;;;24.90;53.50;;;;;;7685885;22;80437;-67
2022/08/10 01:29:29;;;;;;;5.38;3.35;;;24.90;53.50;;;;;;7685883;22;80272;-67
2022/08/10 01:32:30;;;;;;;25.88;3.40;;;24.90;53.60;;;;;;7685664;22;80712;-67
2022/08/10 01:35:30;;;;;;;6.55;3.25;;;24.90;53.60;;;;;;7685964;22;80759;-66
2022/08/10 01:38:32;;;;;;;7.80;2.75;;;24.90;53.70;;;;;;7685703;22;80045;-66
2022/08/10 01:41:33;;;;;;;4.53;2.97;;;24.80;53.60;;;;;;7686101;22;80203;-66
2022/08/10 01:44:33;;;;;;;5.85;3.03;;;24.80;53.70;;;;;;7685781;22;80276;-67
2022/08/10 01:50:53;;;;;;;4.78;3.08;;;24.80;53.70;;;;;;7685732;22;80505;-67
2022/08/10 01:53:54;;;;;;;5.60;3.13;;;24.80;53.70;;;;;;7685278;22;80331;-67
2022/08/10 01:56:54;;;;;;;6.65;3.22;;;24.80;53.80;;;;;;7685605;22;80814;-66
2022/08/10 01:59:55;;;;;;;6.30;3.22;;;24.80;53.70;;;;;;7685570;22;80808;-66
2022/08/10 02:02:55;;;;;;;4.90;3.08;;;24.80;53.70;;;;;;7658290;22;80825;-66
2022/08/10 02:05:56;;;;;;;4.57;3.22;;;24.80;53.70;;;;;;7685131;22;81303;-67
2022/08/10 02:08:56;;;;;;;6.90;3.38;;;24.80;53.80;;;;;;7685327;22;80616;-67
2022/08/10 02:11:57;;;;;;;4.40;2.65;;;24.80;53.80;;;;;;7685278;22;80747;-66
2022/08/10 02:14:57;;;;;;;5.38;3.17;;;24.80;53.80;;;;;;7685269;22;80310;-67
2022/08/10 02:17:57;;;;;;;4.25;2.58;;;24.80;53.80;;;;;;7685311;22;80500;-67
2022/08/10 02:20:58;;;;;;;5.80;3.22;;;24.80;53.70;;;;;;7685876;22;80730;-67
2022/08/10 02:23:59;;;;;;;6.25;3.17;;;24.80;53.70;;;;;;7685916;22;80618;-67
2022/08/10 02:26:59;;;;;;;4.15;2.90;;;24.70;53.60;;;;;;7687484;22;80548;-67
2022/08/10 02:30:00;;;;;;;4.82;3.00;;;24.80;53.60;;;;;;7685259;22;81592;-67
2022/08/10 02:33:00;;;;;;;5.63;3.22;;;24.80;54.40;;;;;;7687107;22;80301;-67
2022/08/10 02:36:01;;;;;;;3.40;2.80;;;24.80;53.70;;;;;;7687067;22;80377;-66
2022/08/10 02:39:01;;;;;;;4.35;2.90;;;24.80;53.70;;;;;;7687090;22;80296;-66
2022/08/10 02:42:02;;;;;;;5.25;3.30;;;24.70;53.80;;;;;;7686672;22;80973;-67
2022/08/10 02:45:02;;;;;;;6.15;3.00;;;24.70;53.70;;;;;;7686467;22;80519;-67
2022/08/10 02:48:03;;;;;;;4.72;2.75;;;24.80;53.70;;;;;;7687305;22;80749;-66
2022/08/10 02:51:03;;;;;;;5.60;2.70;;;24.70;54.30;;;;;;7686147;22;81243;-66
2022/08/10 02:54:04;;;;;;;5.97;2.95;;;24.70;53.70;;;;;;7686849;22;80241;-66
2022/08/10 02:57:04;;;;;;;4.20;3.00;;;24.70;53.70;;;;;;7687521;22;80322;-67
2022/08/10 03:00:06;;;;;;;7.45;3.30;;;24.70;53.70;;;;;;7685438;22;81433;-67
2022/08/10 03:03:07;;;;;;;3.95;2.90;;;24.70;53.70;;;;;;7687263;22;80517;-66
2022/08/10 03:06:08;;;;;;;5.93;3.20;;;24.70;53.70;;;;;;7686851;22;80289;-66
2022/08/10 03:09:08;;;;;;;5.55;3.28;;;24.70;53.70;;;;;;7687555;22;80617;-66
2022/08/10 03:12:09;;;;;;;5.18;3.15;;;24.70;53.70;;;;;;7686620;22;80394;-66
2022/08/10 03:15:09;;;;;;;4.32;3.05;;;24.70;53.60;;;;;;7687532;22;80533;-66
2022/08/10 03:18:09;;;;;;;9.43;2.95;;;24.70;53.60;;;;;;7686901;22;80336;-66
2022/08/10 03:21:10;;;;;;;5.38;3.42;;;24.60;53.70;;;;;;7687115;22;80491;-66
2022/08/10 03:24:10;;;;;;;4.38;2.70;;;24.60;53.70;;;;;;7686825;22;80508;-67
2022/08/10 03:27:11;;;;;;;6.72;3.40;;;24.60;53.70;;;;;;7686632;22;80350;-67
2022/08/10 03:30:11;;;;;;;6.60;2.90;;;24.60;53.70;;;;;;7687075;22;80365;-66
2022/08/10 03:33:12;;;;;;;5.63;3.35;;;24.60;53.70;;;;;;7686412;22;80267;-66
2022/08/10 03:36:12;;;;;;;7.75;3.50;;;24.60;53.70;;;;;;7684274;22;83668;-67
2022/08/10 03:39:13;;;;;;;5.70;3.30;;;24.60;53.70;;;;;;7686882;22;80446;-66
2022/08/10 03:42:13;;;;;;;6.68;3.10;;;24.60;53.70;;;;;;7686753;22;81637;-66
2022/08/10 03:45:14;;;;;;;6.25;3.70;;;24.60;53.70;;;;;;7686532;22;80007;-66
2022/08/10 03:48:14;;;;;;;5.07;3.22;;;24.60;53.80;;;;;;7686569;22;80222;-66
2022/08/10 03:51:15;;;;;;;8.73;3.45;;;24.60;53.80;;;;;;7686512;22;80526;-66
2022/08/10 03:54:15;;;;;;;5.22;2.97;;;24.60;53.70;;;;;;7685636;22;80411;-67
2022/08/10 03:57:16;;;;;;;7.45;3.05;;;24.60;53.70;;;;;;7684261;22;80553;-67
2022/08/10 04:00:17;;;;;;;5.25;3.47;;;24.60;53.70;;;;;;7686140;22;80868;-67
2022/08/10 04:03:18;;;;;;;3.67;3.00;;;24.60;53.70;;;;;;7686095;22;81548;-69
2022/08/10 04:06:18;;;;;;;6.22;3.40;;;24.60;53.70;;;;;;7684614;22;80827;-68
2022/08/10 04:09:18;;;;;;;10.07;3.55;;;24.60;53.70;;;;;;7686423;22;80421;-68
2022/08/10 04:12:19;;;;;;;5.78;3.10;;;24.70;53.70;;;;;;7685422;22;80706;-69
2022/08/10 04:15:19;;;;;;;5.28;3.25;;;24.70;53.80;;;;;;7684827;22;81659;-69
2022/08/10 04:18:20;;;;;;;7.32;3.60;;;24.70;53.90;;;;;;7685746;22;80336;-68
2022/08/10 04:21:20;;;;;;;4.65;2.85;;;24.70;54.00;;;;;;7685215;22;80466;-66
2022/08/10 04:24:21;;;;;;;5.85;3.25;;;24.70;54.00;;;;;;7685321;22;80444;-65
2022/08/10 04:27:21;;;;;;;9.07;3.55;;;24.70;54.00;;;;;;7686283;22;80270;-66
2022/08/10 04:30:22;;;;;;;5.80;3.22;;;24.80;54.10;;;;;;7685438;22;80358;-76
2022/08/10 04:33:22;;;;;;;10.05;3.25;;;24.80;54.20;;;;;;7685643;22;80158;-73
2022/08/10 04:36:23;;;;;;;6.63;3.00;;;24.90;54.20;;;;;;7683779;22;83163;-66
2022/08/10 04:39:23;;;;;;;8.93;3.35;;;24.90;54.30;;;;;;7686448;22;80938;-68
2022/08/10 04:42:24;;;;;;;10.38;3.58;;;25.00;54.30;;;;;;7686197;22;80364;-69
2022/08/10 04:45:24;;;;;;;8.90;3.40;;;24.90;54.40;;;;;;7685812;22;80428;-68
2022/08/10 04:48:25;;;;;;;8.48;3.72;;;24.90;54.40;;;;;;7685759;22;80276;-68
2022/08/10 04:51:25;;;;;;;9.38;4.13;;;24.90;54.50;;;;;;7684462;22;81825;-67
2022/08/10 04:54:25;;;;;;;29.60;14.43;;;24.90;54.40;;;;;;7686221;22;80160;-69
2022/08/10 04:57:26;;;;;;;168.93;79.57;;;25.00;54.60;;;;;;7681964;22;82877;-67
2022/08/10 05:00:26;;;;;;;135.45;63.80;;;25.00;54.90;;;;;;7682101;22;83307;-76
2022/08/10 05:03:27;;;;;;;93.55;41.17;;;25.00;55.10;;;;;;7681859;22;83051;-67
2022/08/10 05:06:27;;;;;;;87.93;39.45;;;25.00;54.90;;;;;;7681831;22;83019;-66
2022/08/10 05:09:28;;;;;;;81.68;36.67;;;25.00;54.90;;;;;;7679941;22;83454;-66
2022/08/10 05:12:28;;;;;;;76.32;33.30;;;25.00;55.20;;;;;;7681892;22;82788;-66
2022/08/10 05:15:30;;;;;;;58.88;27.33;;;25.00;54.90;;;;;;7682061;22;83381;-66
2022/08/10 05:18:30;;;;;;;57.50;26.52;;;25.00;54.90;;;;;;7682158;22;83192;-66
2022/08/10 05:21:31;;;;;;;59.60;28.92;;;25.00;55.20;;;;;;7679904;22;83816;-66
2022/08/10 05:24:31;;;;;;;59.90;26.83;;;25.10;55.30;;;;;;7680229;22;84293;-66
2022/08/10 05:27:32;;;;;;;64.90;28.90;;;25.10;55.30;;;;;;7681664;22;83027;-67
2022/08/10 05:30:33;;;;;;;53.17;25.52;;;25.10;55.50;;;;;;7681900;22;83907;-66
2022/08/10 05:33:33;;;;;;;49.42;24.17;;;25.10;55.90;;;;;;7681394;22;82892;-67
2022/08/10 05:36:34;;;;;;;55.13;25.25;;;25.10;56.40;;;;;;7679094;22;83259;-66
2022/08/10 05:39:34;;;;;;;46.83;22.48;;;25.20;56.40;;;;;;7679487;22;83248;-68
2022/08/10 05:42:35;;;;;;;61.60;26.73;;;25.20;56.60;;;;;;7678798;22;82936;-65
2022/08/10 05:45:35;;;;;;;50.03;24.38;;;25.20;56.20;;;;;;7679721;22;84242;-65
2022/08/10 05:48:36;;;;;;;42.63;21.98;;;25.20;56.60;;;;;;7680964;22;82862;-65
2022/08/10 05:51:36;;;;;;;36.70;20.27;;;25.30;56.30;;;;;;7681153;22;83127;-64
2022/08/10 05:54:37;;;;;;;35.92;17.58;;;25.30;56.40;;;;;;7681541;22;83269;-66
2022/08/10 05:57:37;;;;;;;39.83;18.13;;;25.20;56.50;;;;;;7681398;22;83138;-66
2022/08/10 06:00:38;;;;;;;33.67;15.48;;;25.30;56.10;;;;;;7681829;22;84705;-64
2022/08/10 06:03:38;;;;;;;28.58;13.70;;;25.30;55.90;;;;;;7706311;22;82897;-73
2022/08/10 06:06:39;;;;;;;24.25;13.00;;;25.30;55.70;;;;;;7682584;22;84490;-75
2022/08/10 06:09:40;;;;;;;22.42;11.63;;;25.30;55.50;;;;;;7682079;22;83009;-66
2022/08/10 06:12:40;;;;;;;24.75;10.95;;;25.30;55.50;;;;;;7681304;22;83174;-67
2022/08/10 06:15:41;;;;;;;26.00;11.13;;;25.30;55.40;;;;;;7681419;22;83032;-67
2022/08/10 06:18:41;;;;;;;25.40;9.82;;;25.30;55.30;;;;;;7681668;22;83001;-67
2022/08/10 06:21:42;;;;;;;24.08;8.95;;;25.30;55.30;;;;;;7679905;22;82825;-67
2022/08/10 06:24:42;;;;;;;14.43;7.65;;;25.20;55.40;;;;;;7681471;22;80481;-66
2022/08/10 06:27:42;;;;;;;13.15;7.15;;;25.20;55.70;;;;;;7680226;22;80526;-72
2022/08/10 06:30:43;;;;;;;16.92;7.35;;;25.20;55.60;;;;;;7681336;22;80515;-67
2022/08/10 06:33:43;;;;;;;13.02;6.47;;;25.30;55.30;;;;;;7679973;22;80849;-67
2022/08/10 06:36:44;;;;;;;11.50;5.20;;;25.20;54.70;;;;;;7681024;22;80486;-68
2022/08/10 06:39:44;;;;;;;15.43;5.97;;;25.20;54.70;;;;;;7685143;22;80275;-71
2022/08/10 06:42:45;;;;;;;12.82;5.25;;;25.20;54.70;;;;;;7685693;22;80240;-70
2022/08/10 06:45:45;;;;;;;11.65;4.78;;;25.20;54.60;;;;;;7682577;22;82761;-67
2022/08/10 06:48:46;;;;;;;8.00;4.68;;;25.20;54.60;;;;;;7682698;22;81462;-66
2022/08/10 06:51:47;;;;;;;8.30;4.78;;;25.20;54.40;;;;;;7684484;22;80442;-66
2022/08/10 06:54:47;;;;;;;7.38;4.03;;;25.20;54.10;;;;;;7683946;22;80327;-68
2022/08/10 06:57:47;;;;;;;9.43;5.07;;;25.20;54.00;;;;;;7684157;22;80572;-66
2022/08/10 07:00:48;;;;;;;8.60;4.53;;;25.20;54.10;;;;;;7685166;22;80537;-66
2022/08/10 07:03:49;;;;;;;8.68;4.60;;;25.20;54.00;;;;;;7684708;22;80501;-66
2022/08/10 07:06:49;;;;;;;11.88;4.38;;;25.20;54.30;;;;;;7684541;22;80502;-64
2022/08/10 07:09:50;;;;;;;7.95;4.22;;;25.10;53.80;;;;;;7682187;22;81012;-66
2022/08/10 07:12:50;;;;;;;10.68;3.97;;;25.10;54.00;;;;;;7685209;22;81302;-65
2022/08/10 07:15:51;;;;;;;9.98;4.05;;;25.10;53.80;;;;;;7686171;22;81063;-67
2022/08/10 07:18:51;;;;;;;5.13;3.75;;;25.10;53.70;;;;;;7685688;22;80432;-67
2022/08/10 07:21:51;;;;;;;13.93;4.07;;;25.10;53.60;;;;;;7685636;22;80667;-67
2022/08/10 07:24:52;;;;;;;7.32;3.55;;;25.10;53.60;;;;;;7686042;22;80518;-68
2022/08/10 07:27:52;;;;;;;10.25;4.32;;;25.10;53.60;;;;;;7682540;22;80783;-68
2022/08/10 07:30:53;;;;;;;11.10;4.35;;;25.10;53.70;;;;;;7685374;22;84480;-67
2022/08/10 07:33:54;;;;;;;12.80;4.00;;;25.10;53.80;;;;;;7685920;22;80165;-67
2022/08/10 07:36:54;;;;;;;9.20;4.30;;;25.10;54.00;;;;;;7686625;22;80246;-67
2022/08/10 07:39:54;;;;;;;10.77;3.70;;;25.10;54.50;;;;;;7684796;22;81626;-67
2022/08/10 07:42:55;;;;;;;10.93;5.03;;;25.10;54.10;;;;;;7686071;22;80650;-66
2022/08/10 07:45:56;;;;;;;11.20;4.38;;;25.20;53.80;;;;;;7686226;22;80069;-67
2022/08/10 07:48:56;;;;;;;8.75;4.38;;;25.20;53.80;;;;;;7686311;22;80360;-66
2022/08/10 07:51:56;;;;;;;11.05;4.28;;;25.20;53.90;;;;;;7686093;22;80218;-66
2022/08/10 07:54:57;;;;;;;11.93;4.20;;;25.20;53.90;;;;;;7685965;22;80310;-66
2022/08/10 07:57:57;;;;;;;5.05;3.63;;;25.30;54.30;;;;;;7686339;22;81236;-66
2022/08/10 08:00:58;;;;;;;7.68;3.83;;;25.30;54.20;;;;;;7685530;22;80291;-66
2022/08/10 08:03:59;;;;;;;12.00;4.90;;;25.30;54.30;;;;;;7686191;22;80278;-66
2022/08/10 08:07:02;;;;;;;8.52;3.90;;;25.40;54.00;;;;;;7686188;22;80720;-66
2022/08/10 08:10:02;;;;;;;13.57;4.05;;;25.40;53.80;;;;;;7685988;22;81134;-66
2022/08/10 08:13:03;;;;;;;12.52;4.55;;;25.30;53.60;;;;;;7685335;22;80392;-66
2022/08/10 08:16:04;;;;;;;10.82;4.32;;;25.40;53.70;;;;;;7685868;22;80999;-65
2022/08/10 08:19:04;;;;;;;6.80;3.97;;;25.30;54.90;;;;;;7686160;22;80272;-66
2022/08/10 08:22:05;;;;;;;13.70;3.60;;;25.30;54.90;;;;;;7686565;22;80282;-67
2022/08/10 08:25:05;;;;;;;9.30;3.53;;;25.20;55.00;;;;;;7685915;22;81321;-67
2022/08/10 08:28:07;;;;;;;5.93;3.65;;;25.30;55.00;;;;;;7686201;22;80871;-68
2022/08/10 08:31:07;;;;;;;18.50;3.90;;;25.30;54.40;;;;;;7685600;22;80238;-70
2022/08/10 08:34:08;;;;;;;7.97;4.00;;;25.30;54.70;;;;;;7687807;22;81307;-73
2022/08/10 08:37:09;;;;;;;14.00;6.70;;;25.40;54.80;;;;;;7686750;22;80645;-73
2022/08/10 08:40:09;;;;;;;19.40;9.10;;;25.50;55.10;;;;;;7687382;22;80360;-72
2022/08/10 08:43:09;;;;;;;54.15;17.90;;;25.50;54.80;;;;;;7683858;22;80340;-68
2022/08/10 08:46:10;;;;;;;43.88;19.48;;;25.60;54.10;;;;;;7680545;22;83171;-67
2022/08/10 08:49:10;;;;;;;44.70;16.95;;;25.50;54.20;;;;;;7680814;22;82957;-67
2022/08/10 08:52:11;;;;;;;21.40;9.43;;;25.60;54.00;;;;;;7677748;22;83258;-67
2022/08/10 08:55:11;;;;;;;19.45;8.15;;;25.50;53.60;;;;;;7684473;22;82975;-68
2022/08/10 08:58:13;;;;;;;18.85;9.35;;;25.50;53.50;;;;;;7685083;22;80563;-68
2022/08/10 09:01:13;;;;;;;17.10;7.55;;;25.50;53.90;;;;;;7686278;22;81784;-67
2022/08/10 09:04:14;;;;;;;15.60;6.88;;;25.60;54.00;;;;;;7685981;22;80472;-67
2022/08/10 09:07:14;;;;;;;8.50;5.00;;;25.60;53.90;;;;;;7685839;22;81562;-67
2022/08/10 09:10:15;;;;;;;11.70;5.72;;;25.60;53.20;;;;;;7685813;22;80523;-68
2022/08/10 09:13:15;;;;;;;7.47;4.50;;;25.60;53.20;;;;;;7686522;22;80154;-67
2022/08/10 09:16:16;;;;;;;5.68;3.75;;;25.60;53.00;;;;;;7686915;22;81616;-67
2022/08/10 09:19:16;;;;;;;7.97;3.40;;;25.60;52.90;;;;;;7686882;22;80563;-69
2022/08/10 09:22:17;;;;;;;7.43;4.10;;;25.60;52.20;;;;;;7686723;22;81538;-74
2022/08/10 09:25:17;;;;;;;3.97;2.92;;;25.50;52.20;;;;;;7687281;22;81020;-77
2022/08/10 09:28:18;;;;;;;3.90;3.08;;;25.60;52.10;;;;;;7686505;22;80947;-67
2022/08/10 09:31:18;;;;;;;3.65;3.25;;;25.60;52.00;;;;;;7686466;22;80178;-66
2022/08/10 09:34:19;;;;;;;6.38;2.85;;;25.60;52.30;;;;;;7685792;22;80413;-81
2022/08/10 09:37:20;;;;;;;5.22;2.40;;;25.60;51.50;;;;;;7687407;22;81174;-69
2022/08/10 09:40:20;;;;;;;4.93;2.38;;;25.60;50.30;;;;;;7684249;22;81354;-68
2022/08/10 09:43:20;;;;;;;4.53;2.10;;;25.60;50.60;;;;;;7685404;22;80238;-69
2022/08/10 09:46:21;;;;;;;6.85;2.63;;;25.60;49.10;;;;;;7686084;22;80691;-68
2022/08/10 09:49:21;;;;;;;2.95;2.10;;;25.60;49.00;;;;;;7686901;22;81451;-65
2022/08/10 09:52:22;;;;;;;4.53;2.15;;;25.60;48.90;;;;;;7683920;22;80952;-68
2022/08/10 09:55:23;;;;;;;12.88;2.65;;;25.60;48.80;;;;;;7686057;22;81823;-69
2022/08/10 09:58:23;;;;;;;4.88;2.00;;;25.50;48.10;;;;;;7686151;22;80736;-70
2022/08/10 10:01:23;;;;;;;5.25;2.20;;;25.50;48.50;;;;;;7686622;22;80367;-70
2022/08/10 10:04:25;;;;;;;7.82;2.50;;;25.50;48.50;;;;;;7687402;22;80655;-69
2022/08/10 10:07:26;;;;;;;4.00;1.90;;;25.50;48.10;;;;;;7686236;22;80179;-69
2022/08/10 10:10:26;;;;;;;5.07;2.10;;;25.40;48.20;;;;;;7686362;22;80352;-70
2022/08/10 10:13:27;;;;;;;5.28;2.20;;;25.40;48.20;;;;;;7686440;22;80408;-70
2022/08/10 10:16:28;;;;;;;7.72;1.83;;;25.40;48.40;;;;;;7684735;22;81764;-70
2022/08/10 10:19:28;;;;;;;3.38;1.80;;;25.40;48.40;;;;;;7686595;22;80509;-69
2022/08/10 10:22:29;;;;;;;3.78;2.78;;;25.50;48.80;;;;;;7684774;22;83093;-70
2022/08/10 10:25:29;;;;;;;6.10;2.45;;;25.40;48.80;;;;;;7686075;22;80543;-69
2022/08/10 10:28:30;;;;;;;4.15;2.50;;;25.40;49.00;;;;;;7686148;22;80444;-70
2022/08/10 10:31:30;;;;;;;7.45;2.70;;;25.40;49.10;;;;;;7686450;22;80442;-69
2022/08/10 10:34:31;;;;;;;3.30;2.28;;;25.40;49.00;;;;;;7684522;22;81461;-68
2022/08/10 10:37:31;;;;;;;2.95;2.20;;;25.40;48.70;;;;;;7682722;22;83299;-70
2022/08/10 10:40:31;;;;;;;4.75;2.10;;;25.30;48.40;;;;;;7685179;22;80106;-68
2022/08/10 10:43:32;;;;;;;2.40;2.00;;;25.30;48.00;;;;;;7684901;22;81300;-70
2022/08/10 10:46:32;;;;;;;4.10;2.10;;;25.30;48.10;;;;;;7687032;22;80964;-71
2022/08/10 10:49:33;;;;;;;4.53;2.08;;;25.30;48.30;;;;;;7687555;22;81754;-71
2022/08/10 10:52:33;;;;;;;4.50;2.40;;;25.30;48.40;;;;;;7687531;22;80195;-71
2022/08/10 10:55:34;;;;;;;3.03;2.17;;;25.30;48.40;;;;;;7687445;22;80466;-70
2022/08/10 10:58:34;;;;;;;5.68;2.22;;;25.30;48.40;;;;;;7685589;22;83207;-70
2022/08/10 11:01:35;;;;;;;3.80;1.95;;;25.30;48.40;;;;;;7687899;22;80210;-70
2022/08/10 11:04:35;;;;;;;2.33;1.90;;;25.40;48.50;;;;;;7686747;22;81236;-66
2022/08/10 11:07:36;;;;;;;6.50;2.30;;;25.40;48.00;;;;;;7687447;22;80625;-64
2022/08/10 11:10:36;;;;;;;2.85;2.25;;;25.30;48.00;;;;;;7685525;22;80522;-67
2022/08/10 11:13:37;;;;;;;3.03;2.25;;;25.30;48.10;;;;;;7686957;22;81366;-67
2022/08/10 11:16:42;;;;;;;8.15;2.42;;;25.40;48.50;;;;;;7686330;22;87206;-68
2022/08/10 11:19:42;;;;;;;6.47;2.05;;;25.40;48.40;;;;;;7686456;22;80139;-68
2022/08/10 11:22:43;;;;;;;5.28;2.05;;;25.40;47.90;;;;;;7685113;22;80912;-69
2022/08/10 11:25:43;;;;;;;2.85;1.80;;;25.30;47.90;;;;;;7686617;22;80348;-70
2022/08/10 11:28:44;;;;;;;5.43;2.25;;;25.40;48.10;;;;;;7687308;22;81743;-68
2022/08/10 11:31:44;;;;;;;15.02;6.60;;;25.50;48.50;;;;;;7687047;22;80507;-69
2022/08/10 11:34:44;;;;;;;23.75;10.88;;;25.60;48.60;;;;;;7686607;22;81359;-69
2022/08/10 11:37:45;;;;;;;29.63;12.25;;;25.70;48.60;;;;;;7683121;22;82756;-69
2022/08/10 11:40:45;;;;;;;35.88;16.80;;;25.70;48.40;;;;;;7682871;22;82727;-69
2022/08/10 11:43:46;;;;;;;53.00;21.77;;;25.70;48.40;;;;;;7680905;22;82884;-69
2022/08/10 11:46:46;;;;;;;104.35;45.95;;;25.70;48.50;;;;;;7681300;22;84103;-69
2022/08/10 11:49:47;;;;;;;92.78;42.13;;;25.80;48.50;;;;;;7680695;22;83953;-68
2022/08/10 11:52:47;;;;;;;84.07;35.83;;;25.80;48.30;;;;;;7681592;22;83897;-66
2022/08/10 11:55:48;;;;;;;107.68;46.67;;;25.90;48.70;;;;;;7682206;22;83694;-68
2022/08/10 12:02:08;;;;;;;39.63;18.00;;;25.90;48.70;;;;;;7679979;22;83999;-69
2022/08/10 12:05:08;;;;;;;43.08;18.30;;;25.90;48.50;;;;;;7680233;22;84054;-68
2022/08/10 12:08:09;;;;;;;33.25;13.25;;;25.90;48.50;;;;;;7682004;22;83387;-67
2022/08/10 12:11:09;;;;;;;10.07;6.05;;;25.90;48.00;;;;;;7682352;22;82829;-68
2022/08/10 12:14:10;;;;;;;9.60;4.95;;;25.90;48.00;;;;;;7685662;22;81542;-67
2022/08/10 12:17:10;;;;;;;13.75;4.80;;;26.00;48.20;;;;;;7685570;22;81823;-68
2022/08/10 12:20:11;;;;;;;8.85;3.40;;;26.00;48.50;;;;;;7685463;22;81637;-68
2022/08/10 12:23:11;;;;;;;4.40;2.70;;;26.00;48.30;;;;;;7685586;22;80680;-66
2022/08/10 12:26:12;;;;;;;6.80;2.95;;;25.90;48.20;;;;;;7685796;22;80569;-68
2022/08/10 12:29:12;;;;;;;3.90;2.50;;;26.00;48.60;;;;;;7687202;22;81225;-70
2022/08/10 12:32:13;;;;;;;3.83;2.70;;;25.90;47.50;;;;;;7686578;22;80425;-63
2022/08/10 12:35:13;;;;;;;9.75;2.33;;;25.90;48.10;;;;;;7686449;22;84685;-66
2022/08/10 12:38:14;;;;;;;3.25;2.55;;;25.90;48.00;;;;;;7687024;22;80375;-67
2022/08/10 12:41:14;;;;;;;4.03;1.92;;;25.90;48.20;;;;;;7686873;22;80261;-67
2022/08/10 12:44:15;;;;;;;5.10;2.15;;;25.90;48.00;;;;;;7686642;22;80657;-68
2022/08/10 12:47:15;;;;;;;6.63;2.35;;;25.90;47.70;;;;;;7686765;22;80272;-64
2022/08/10 12:50:18;;;;;;;3.30;2.22;;;25.90;47.30;;;;;;7686900;22;80273;-68
2022/08/10 12:53:18;;;;;;;2.83;2.13;;;25.90;47.60;;;;;;7683663;22;83608;-66
2022/08/10 12:56:19;;;;;;;2.67;1.83;;;25.90;47.30;;;;;;7687085;22;80641;-64
2022/08/10 12:59:19;;;;;;;2.63;1.75;;;25.90;47.40;;;;;;7685802;22;80340;-66
2022/08/10 13:02:20;;;;;;;4.22;1.90;;;26.00;47.20;;;;;;7685169;22;80807;-67
2022/08/10 13:05:20;;;;;;;3.20;1.52;;;26.00;47.20;;;;;;7684514;22;80547;-67
2022/08/10 13:11:40;;;;;;;2.08;1.73;;;26.00;47.40;;;;;;7684824;22;81738;-66
2022/08/10 13:14:41;;;;;;;4.22;1.60;;;25.90;47.10;;;;;;7685991;22;80272;-66
2022/08/10 13:17:42;;;;;;;6.57;2.10;;;26.00;47.30;;;;;;7687164;22;80364;-66
2022/08/10 13:20:42;;;;;;;5.25;2.05;;;26.00;47.20;;;;;;7686168;22;80212;-67
2022/08/10 13:23:43;;;;;;;3.28;1.90;;;26.00;47.00;;;;;;7686723;22;80590;-67
2022/08/10 13:26:43;;;;;;;1.98;1.50;;;26.00;47.00;;;;;;7687115;22;80929;-65
2022/08/10 13:29:44;;;;;;;2.55;1.45;;;26.00;47.20;;;;;;7687237;22;80437;-64
2022/08/10 13:32:44;;;;;;;2.75;2.25;;;26.00;47.20;;;;;;7684997;22;82709;-65
2022/08/10 13:35:45;;;;;;;2.53;1.58;;;26.10;47.30;;;;;;7686706;22;80165;-66
2022/08/10 13:38:47;;;;;;;2.22;1.50;;;26.00;46.50;;;;;;7686592;22;79781;-65
2022/08/10 13:41:48;;;;;;;8.88;2.15;;;26.00;46.60;;;;;;7685634;22;81384;-64
2022/08/10 13:44:48;;;;;;;2.67;1.33;;;26.00;46.70;;;;;;7684433;22;81069;-66
2022/08/10 13:47:49;;;;;;;9.80;1.77;;;26.00;46.90;;;;;;7685707;22;80499;-65
2022/08/10 13:50:49;;;;;;;2.17;1.63;;;26.00;46.70;;;;;;7686145;22;80351;-67
2022/08/10 13:53:50;;;;;;;3.42;2.10;;;26.00;46.30;;;;;;7686213;22;80261;-66
2022/08/10 13:56:50;;;;;;;3.53;2.08;;;26.00;45.40;;;;;;7686808;22;80441;-67
2022/08/10 13:59:50;;;;;;;6.30;2.42;;;25.90;45.60;;;;;;7686792;22;80235;-68
2022/08/10 14:02:51;;;;;;;4.57;2.72;;;25.90;45.80;;;;;;7686636;22;80609;-68
2022/08/10 14:05:51;;;;;;;4.88;1.90;;;25.90;45.90;;;;;;7686198;22;80314;-66
2022/08/10 14:08:52;;;;;;;5.10;2.10;;;25.80;45.80;;;;;;7686263;22;80647;-67
2022/08/10 14:11:52;;;;;;;2.55;1.98;;;25.90;46.10;;;;;;7682566;22;80559;-68
2022/08/10 14:14:53;;;;;;;4.25;1.80;;;25.90;46.20;;;;;;7686122;22;80617;-71
2022/08/10 14:17:54;;;;;;;5.55;1.85;;;25.90;45.70;;;;;;7686366;22;80396;-70
2022/08/10 14:20:54;;;;;;;1.63;1.52;;;25.90;45.90;;;;;;7690042;22;80265;-71
2022/08/10 14:23:55;;;;;;;3.08;1.77;;;25.90;45.20;;;;;;7662478;22;83708;-71
2022/08/10 14:26:55;;;;;;;3.60;1.65;;;25.90;45.30;;;;;;7690179;22;80431;-70
2022/08/10 14:29:55;;;;;;;3.88;1.60;;;25.90;45.50;;;;;;7691177;22;80237;-70
2022/08/10 14:32:56;;;;;;;2.22;1.50;;;25.90;45.70;;;;;;7689589;22;80769;-69
2022/08/10 14:35:56;;;;;;;2.95;1.73;;;25.90;45.60;;;;;;7692119;22;81281;-70
2022/08/10 14:38:57;;;;;;;4.15;2.10;;;25.90;45.70;;;;;;7690342;22;80230;-68
2022/08/10 14:41:57;;;;;;;6.93;2.40;;;25.90;45.50;;;;;;7690125;22;80985;-68
2022/08/10 14:44:58;;;;;;;6.97;2.22;;;25.90;45.70;;;;;;7689720;22;81621;-69
2022/08/10 14:47:58;;;;;;;4.65;2.33;;;25.90;45.90;;;;;;7688447;22;80740;-70
2022/08/10 14:50:59;;;;;;;3.97;2.20;;;25.90;45.60;;;;;;7689751;22;80435;-69
2022/08/10 14:54:00;;;;;;;5.88;2.28;;;25.80;45.40;;;;;;7689053;22;80434;-70
2022/08/10 14:57:00;;;;;;;3.15;1.83;;;25.90;45.60;;;;;;7689764;22;80441;-69
2022/08/10 15:00:01;;;;;;;4.05;2.25;;;25.80;45.70;;;;;;7689716;22;80216;-68
2022/08/10 15:03:01;;;;;;;7.82;2.20;;;25.90;45.90;;;;;;7689451;22;80551;-68
2022/08/10 15:06:02;;;;;;;4.13;1.75;;;25.90;45.90;;;;;;7688059;22;81317;-68
2022/08/10 15:09:03;;;;;;;4.35;1.60;;;25.90;45.70;;;;;;7688175;22;80574;-66
2022/08/10 15:12:03;;;;;;;3.25;1.55;;;25.90;46.70;;;;;;7688284;22;80402;-68
2022/08/10 15:15:04;;;;;;;4.30;2.00;;;25.90;46.30;;;;;;7690216;22;81062;-67
2022/08/10 15:18:04;;;;;;;3.45;2.22;;;25.80;46.30;;;;;;7690394;22;80383;-68
2022/08/10 15:21:05;;;;;;;1.92;1.73;;;25.90;46.30;;;;;;7690582;22;80404;-68
2022/08/10 15:24:05;;;;;;;3.85;1.58;;;25.90;46.10;;;;;;7689947;22;80209;-66
2022/08/10 15:27:06;;;;;;;3.72;1.88;;;25.80;46.00;;;;;;7690027;22;80254;-67
2022/08/10 15:30:06;;;;;;;5.07;2.10;;;25.90;46.10;;;;;;7689360;22;80785;-66
2022/08/10 15:39:45;;;;;;;5.13;2.35;;;25.90;45.70;;;;;;7687225;22;81414;-68
2022/08/10 15:42:46;;;;;;;50.15;22.27;;;25.80;45.90;;;;;;7687258;22;80131;-67
2022/08/10 15:45:46;;;;;;;72.25;29.63;;;25.90;45.90;;;;;;7683453;22;82974;-65
2022/08/10 15:48:47;;;;;;;57.15;22.30;;;25.80;45.70;;;;;;7683450;22;82665;-67
2022/08/10 15:51:47;;;;;;;35.85;15.85;;;25.80;45.30;;;;;;7683639;22;84022;-65